sensor_id;sensor_type;location;lat;lon;timestamp;P1;durP1;ratioP1;P2;durP2;ratioP2
61250;SDS011;47126;47.508;8.590;2022-10-15T00:01:46;10.45;;;2.40;;
61250;SDS011;47126;47.508;8.590;2022-10-15T00:04:12;5.25;;;3.03;;
61250;SDS011;47126;47.508;8.590;2022-10-15T00:06:38;6.97;;;2.50;;
61250;SDS011;47126;47.508;8.590;2022-10-15T00:09:04;3.95;;;2.22;;
61250;SDS011;47126;47.508;8.590;2022-10-15T00:11:30;5.57;;;2.50;;
61250;SDS011;47126;47.508;8.590;2022-10-15T00:13:56;4.22;;;2.67;;
61250;SDS011;47126;47.508;8.590;2022-10-15T00:16:24;4.18;;;2.53;;
61250;SDS011;47126;47.508;8.590;2022-10-15T00:18:50;4.78;;;2.78;;
61250;SDS011;47126;47.508;8.590;2022-10-15T00:21:17;4.03;;;2.45;;
61250;SDS011;47126;47.508;8.590;2022-10-15T00:23:44;6.07;;;2.65;;
61250;SDS011;47126;47.508;8.590;2022-10-15T00:26:12;6.38;;;3.00;;
61250;SDS011;47126;47.508;8.590;2022-10-15T00:28:38;5.60;;;2.83;;
61250;SDS011;47126;47.508;8.590;2022-10-15T00:31:05;4.65;;;2.85;;
61250;SDS011;47126;47.508;8.590;2022-10-15T00:33:31;4.45;;;2.80;;
61250;SDS011;47126;47.508;8.590;2022-10-15T00:35:58;5.80;;;3.13;;
61250;SDS011;47126;47.508;8.590;2022-10-15T00:38:24;6.43;;;2.83;;
61250;SDS011;47126;47.508;8.590;2022-10-15T00:40:50;5.32;;;2.63;;
61250;SDS011;47126;47.508;8.590;2022-10-15T00:43:16;6.20;;;2.95;;
61250;SDS011;47126;47.508;8.590;2022-10-15T00:45:42;4.45;;;2.70;;
61250;SDS011;47126;47.508;8.590;2022-10-15T00:48:08;5.13;;;2.83;;
61250;SDS011;47126;47.508;8.590;2022-10-15T00:50:34;4.88;;;2.85;;
61250;SDS011;47126;47.508;8.590;2022-10-15T00:53:05;5.82;;;3.15;;
61250;SDS011;47126;47.508;8.590;2022-10-15T00:55:33;6.25;;;2.80;;
61250;SDS011;47126;47.508;8.590;2022-10-15T00:58:00;5.07;;;2.88;;
61250;SDS011;47126;47.508;8.590;2022-10-15T01:00:27;6.10;;;2.75;;
61250;SDS011;47126;47.508;8.590;2022-10-15T01:02:54;4.85;;;2.50;;
61250;SDS011;47126;47.508;8.590;2022-10-15T01:05:20;5.57;;;2.30;;
61250;SDS011;47126;47.508;8.590;2022-10-15T01:07:46;5.20;;;2.47;;
61250;SDS011;47126;47.508;8.590;2022-10-15T01:10:12;2.90;;;2.10;;
61250;SDS011;47126;47.508;8.590;2022-10-15T01:17:47;3.30;;;1.73;;
61250;SDS011;47126;47.508;8.590;2022-10-15T01:30:46;3.35;;;1.50;;
61250;SDS011;47126;47.508;8.590;2022-10-15T01:33:21;2.00;;;1.30;;
61250;SDS011;47126;47.508;8.590;2022-10-15T01:35:50;2.50;;;1.38;;
61250;SDS011;47126;47.508;8.590;2022-10-15T01:38:22;2.30;;;1.33;;
61250;SDS011;47126;47.508;8.590;2022-10-15T01:40:52;3.83;;;1.60;;
61250;SDS011;47126;47.508;8.590;2022-10-15T01:43:21;2.85;;;1.23;;
61250;SDS011;47126;47.508;8.590;2022-10-15T01:45:53;3.45;;;1.20;;
61250;SDS011;47126;47.508;8.590;2022-10-15T01:48:20;2.10;;;1.27;;
61250;SDS011;47126;47.508;8.590;2022-10-15T01:50:48;2.28;;;1.20;;
61250;SDS011;47126;47.508;8.590;2022-10-15T01:53:16;2.20;;;1.50;;
61250;SDS011;47126;47.508;8.590;2022-10-15T01:55:45;1.55;;;1.20;;
61250;SDS011;47126;47.508;8.590;2022-10-15T01:58:12;1.85;;;1.20;;
61250;SDS011;47126;47.508;8.590;2022-10-15T02:00:40;3.05;;;1.05;;
61250;SDS011;47126;47.508;8.590;2022-10-15T02:03:07;1.55;;;1.10;;
61250;SDS011;47126;47.508;8.590;2022-10-15T02:05:36;3.80;;;1.20;;
61250;SDS011;47126;47.508;8.590;2022-10-15T02:10:30;4.18;;;1.15;;
61250;SDS011;47126;47.508;8.590;2022-10-15T02:15:45;1.33;;;0.90;;
61250;SDS011;47126;47.508;8.590;2022-10-15T02:20:57;2.13;;;1.05;;
61250;SDS011;47126;47.508;8.590;2022-10-15T02:23:29;1.17;;;1.08;;
61250;SDS011;47126;47.508;8.590;2022-10-15T02:25:58;2.10;;;1.10;;
61250;SDS011;47126;47.508;8.590;2022-10-15T02:28:24;4.82;;;0.80;;
61250;SDS011;47126;47.508;8.590;2022-10-15T02:30:52;3.80;;;0.75;;
61250;SDS011;47126;47.508;8.590;2022-10-15T02:33:19;2.53;;;0.80;;
61250;SDS011;47126;47.508;8.590;2022-10-15T02:35:46;3.38;;;0.90;;
61250;SDS011;47126;47.508;8.590;2022-10-15T02:38:13;0.70;;;0.70;;
61250;SDS011;47126;47.508;8.590;2022-10-15T02:40:41;2.72;;;0.88;;
61250;SDS011;47126;47.508;8.590;2022-10-15T02:43:09;2.92;;;1.00;;
61250;SDS011;47126;47.508;8.590;2022-10-15T02:45:36;8.02;;;0.82;;
61250;SDS011;47126;47.508;8.590;2022-10-15T02:48:02;2.38;;;0.93;;
61250;SDS011;47126;47.508;8.590;2022-10-15T02:50:28;1.75;;;0.70;;
61250;SDS011;47126;47.508;8.590;2022-10-15T02:52:54;1.02;;;0.80;;
61250;SDS011;47126;47.508;8.590;2022-10-15T02:55:20;1.17;;;0.90;;
61250;SDS011;47126;47.508;8.590;2022-10-15T02:57:46;2.08;;;1.00;;
61250;SDS011;47126;47.508;8.590;2022-10-15T03:00:12;3.58;;;0.93;;
61250;SDS011;47126;47.508;8.590;2022-10-15T03:02:38;4.13;;;0.80;;
61250;SDS011;47126;47.508;8.590;2022-10-15T03:05:04;3.17;;;0.80;;
61250;SDS011;47126;47.508;8.590;2022-10-15T03:07:31;1.30;;;0.80;;
61250;SDS011;47126;47.508;8.590;2022-10-15T03:09:57;1.40;;;0.80;;
61250;SDS011;47126;47.508;8.590;2022-10-15T03:12:23;4.65;;;0.90;;
61250;SDS011;47126;47.508;8.590;2022-10-15T03:14:50;2.95;;;0.75;;
61250;SDS011;47126;47.508;8.590;2022-10-15T03:17:16;1.58;;;0.90;;
61250;SDS011;47126;47.508;8.590;2022-10-15T03:19:42;2.30;;;0.93;;
61250;SDS011;47126;47.508;8.590;2022-10-15T03:22:08;1.75;;;0.98;;
61250;SDS011;47126;47.508;8.590;2022-10-15T03:24:34;0.98;;;0.82;;
61250;SDS011;47126;47.508;8.590;2022-10-15T03:27:00;4.93;;;0.90;;
61250;SDS011;47126;47.508;8.590;2022-10-15T03:29:26;4.30;;;0.93;;
61250;SDS011;47126;47.508;8.590;2022-10-15T03:31:52;2.10;;;1.00;;
61250;SDS011;47126;47.508;8.590;2022-10-15T03:34:18;2.38;;;0.93;;
61250;SDS011;47126;47.508;8.590;2022-10-15T03:36:44;1.75;;;1.10;;
61250;SDS011;47126;47.508;8.590;2022-10-15T03:39:10;2.63;;;0.80;;
61250;SDS011;47126;47.508;8.590;2022-10-15T03:41:37;2.20;;;0.80;;
61250;SDS011;47126;47.508;8.590;2022-10-15T03:44:03;2.70;;;0.90;;
61250;SDS011;47126;47.508;8.590;2022-10-15T03:46:30;1.55;;;0.90;;
61250;SDS011;47126;47.508;8.590;2022-10-15T03:48:56;2.10;;;1.13;;
61250;SDS011;47126;47.508;8.590;2022-10-15T03:51:22;1.42;;;1.05;;
61250;SDS011;47126;47.508;8.590;2022-10-15T03:53:48;3.53;;;1.10;;
61250;SDS011;47126;47.508;8.590;2022-10-15T03:56:14;2.53;;;1.00;;
61250;SDS011;47126;47.508;8.590;2022-10-15T03:58:40;3.20;;;1.13;;
61250;SDS011;47126;47.508;8.590;2022-10-15T04:01:13;1.60;;;0.80;;
61250;SDS011;47126;47.508;8.590;2022-10-15T04:03:39;3.45;;;0.90;;
61250;SDS011;47126;47.508;8.590;2022-10-15T04:06:06;2.40;;;1.15;;
61250;SDS011;47126;47.508;8.590;2022-10-15T04:08:32;4.03;;;1.30;;
61250;SDS011;47126;47.508;8.590;2022-10-15T04:10:58;1.23;;;1.00;;
61250;SDS011;47126;47.508;8.590;2022-10-15T04:13:25;4.35;;;0.90;;
61250;SDS011;47126;47.508;8.590;2022-10-15T04:15:51;1.80;;;0.93;;
61250;SDS011;47126;47.508;8.590;2022-10-15T04:18:17;1.20;;;0.98;;
61250;SDS011;47126;47.508;8.590;2022-10-15T04:20:45;1.50;;;1.20;;
61250;SDS011;47126;47.508;8.590;2022-10-15T04:23:11;3.80;;;1.20;;
61250;SDS011;47126;47.508;8.590;2022-10-15T04:25:38;5.80;;;1.35;;
61250;SDS011;47126;47.508;8.590;2022-10-15T04:28:04;1.30;;;1.10;;
61250;SDS011;47126;47.508;8.590;2022-10-15T04:30:30;2.03;;;1.00;;
61250;SDS011;47126;47.508;8.590;2022-10-15T04:32:56;2.85;;;1.15;;
61250;SDS011;47126;47.508;8.590;2022-10-15T04:35:22;3.35;;;1.50;;
61250;SDS011;47126;47.508;8.590;2022-10-15T04:37:48;5.55;;;1.30;;
61250;SDS011;47126;47.508;8.590;2022-10-15T04:40:14;4.45;;;1.40;;
61250;SDS011;47126;47.508;8.590;2022-10-15T04:42:41;2.90;;;1.33;;
61250;SDS011;47126;47.508;8.590;2022-10-15T04:45:07;4.00;;;1.23;;
61250;SDS011;47126;47.508;8.590;2022-10-15T04:47:33;5.60;;;1.40;;
61250;SDS011;47126;47.508;8.590;2022-10-15T04:49:59;2.50;;;1.25;;
61250;SDS011;47126;47.508;8.590;2022-10-15T04:52:25;2.70;;;1.20;;
61250;SDS011;47126;47.508;8.590;2022-10-15T04:54:51;4.60;;;1.60;;
61250;SDS011;47126;47.508;8.590;2022-10-15T04:57:17;3.70;;;1.48;;
61250;SDS011;47126;47.508;8.590;2022-10-15T04:59:43;3.40;;;1.42;;
61250;SDS011;47126;47.508;8.590;2022-10-15T05:02:09;5.47;;;1.60;;
61250;SDS011;47126;47.508;8.590;2022-10-15T05:04:36;4.80;;;1.60;;
61250;SDS011;47126;47.508;8.590;2022-10-15T05:07:02;3.97;;;1.23;;
61250;SDS011;47126;47.508;8.590;2022-10-15T05:09:28;4.65;;;1.48;;
61250;SDS011;47126;47.508;8.590;2022-10-15T05:11:54;5.38;;;1.60;;
61250;SDS011;47126;47.508;8.590;2022-10-15T05:14:20;5.95;;;1.65;;
61250;SDS011;47126;47.508;8.590;2022-10-15T05:16:46;3.33;;;1.30;;
61250;SDS011;47126;47.508;8.590;2022-10-15T05:19:12;3.15;;;1.58;;
61250;SDS011;47126;47.508;8.590;2022-10-15T05:21:40;4.90;;;1.88;;
61250;SDS011;47126;47.508;8.590;2022-10-15T05:24:07;5.25;;;1.85;;
61250;SDS011;47126;47.508;8.590;2022-10-15T05:26:33;3.13;;;1.48;;
61250;SDS011;47126;47.508;8.590;2022-10-15T05:28:59;2.97;;;1.50;;
61250;SDS011;47126;47.508;8.590;2022-10-15T05:31:27;2.90;;;1.40;;
61250;SDS011;47126;47.508;8.590;2022-10-15T05:33:53;2.33;;;1.48;;
61250;SDS011;47126;47.508;8.590;2022-10-15T05:36:20;3.33;;;1.40;;
61250;SDS011;47126;47.508;8.590;2022-10-15T05:38:53;32.33;;;4.85;;
61250;SDS011;47126;47.508;8.590;2022-10-15T05:41:20;2.30;;;1.38;;
61250;SDS011;47126;47.508;8.590;2022-10-15T05:43:47;3.60;;;1.45;;
61250;SDS011;47126;47.508;8.590;2022-10-15T05:46:13;4.97;;;1.70;;
61250;SDS011;47126;47.508;8.590;2022-10-15T05:48:39;4.90;;;1.92;;
61250;SDS011;47126;47.508;8.590;2022-10-15T05:51:06;4.57;;;1.85;;
61250;SDS011;47126;47.508;8.590;2022-10-15T05:53:32;4.43;;;1.83;;
61250;SDS011;47126;47.508;8.590;2022-10-15T05:55:59;5.03;;;1.88;;
61250;SDS011;47126;47.508;8.590;2022-10-15T05:58:25;2.92;;;1.80;;
61250;SDS011;47126;47.508;8.590;2022-10-15T06:00:55;5.53;;;1.80;;
61250;SDS011;47126;47.508;8.590;2022-10-15T06:03:22;4.23;;;1.60;;
61250;SDS011;47126;47.508;8.590;2022-10-15T06:05:48;8.15;;;2.08;;
61250;SDS011;47126;47.508;8.590;2022-10-15T06:08:14;2.92;;;2.00;;
61250;SDS011;47126;47.508;8.590;2022-10-15T06:10:40;4.68;;;2.08;;
61250;SDS011;47126;47.508;8.590;2022-10-15T06:13:06;5.57;;;1.88;;
61250;SDS011;47126;47.508;8.590;2022-10-15T06:15:33;4.82;;;1.92;;
61250;SDS011;47126;47.508;8.590;2022-10-15T06:17:59;5.03;;;1.92;;
61250;SDS011;47126;47.508;8.590;2022-10-15T06:20:25;4.80;;;1.80;;
61250;SDS011;47126;47.508;8.590;2022-10-15T06:22:55;5.35;;;1.67;;
61250;SDS011;47126;47.508;8.590;2022-10-15T06:25:22;4.97;;;1.67;;
61250;SDS011;47126;47.508;8.590;2022-10-15T06:27:48;5.57;;;1.63;;
61250;SDS011;47126;47.508;8.590;2022-10-15T06:30:14;6.10;;;1.90;;
61250;SDS011;47126;47.508;8.590;2022-10-15T06:32:45;3.38;;;2.17;;
61250;SDS011;47126;47.508;8.590;2022-10-15T06:35:12;3.00;;;1.73;;
61250;SDS011;47126;47.508;8.590;2022-10-15T06:37:38;10.10;;;2.08;;
61250;SDS011;47126;47.508;8.590;2022-10-15T06:40:04;4.93;;;2.20;;
61250;SDS011;47126;47.508;8.590;2022-10-15T06:42:30;4.88;;;1.90;;
61250;SDS011;47126;47.508;8.590;2022-10-15T06:44:56;7.50;;;3.15;;
61250;SDS011;47126;47.508;8.590;2022-10-15T06:47:22;5.53;;;2.50;;
61250;SDS011;47126;47.508;8.590;2022-10-15T06:49:48;3.97;;;2.35;;
61250;SDS011;47126;47.508;8.590;2022-10-15T06:52:14;7.93;;;3.03;;
61250;SDS011;47126;47.508;8.590;2022-10-15T06:54:40;6.43;;;2.83;;
61250;SDS011;47126;47.508;8.590;2022-10-15T06:57:06;4.85;;;1.85;;
61250;SDS011;47126;47.508;8.590;2022-10-15T06:59:32;5.30;;;1.98;;
61250;SDS011;47126;47.508;8.590;2022-10-15T07:01:58;5.97;;;1.77;;
61250;SDS011;47126;47.508;8.590;2022-10-15T07:04:24;5.53;;;1.52;;
61250;SDS011;47126;47.508;8.590;2022-10-15T07:06:50;4.90;;;1.65;;
61250;SDS011;47126;47.508;8.590;2022-10-15T07:09:16;6.85;;;2.03;;
61250;SDS011;47126;47.508;8.590;2022-10-15T07:11:43;10.50;;;1.92;;
61250;SDS011;47126;47.508;8.590;2022-10-15T07:14:09;1.90;;;1.50;;
61250;SDS011;47126;47.508;8.590;2022-10-15T07:16:35;4.18;;;1.70;;
61250;SDS011;47126;47.508;8.590;2022-10-15T07:19:02;3.78;;;1.77;;
61250;SDS011;47126;47.508;8.590;2022-10-15T07:21:29;3.00;;;1.83;;
61250;SDS011;47126;47.508;8.590;2022-10-15T07:23:55;4.00;;;1.70;;
61250;SDS011;47126;47.508;8.590;2022-10-15T07:26:21;3.28;;;1.92;;
61250;SDS011;47126;47.508;8.590;2022-10-15T07:28:47;10.25;;;1.60;;
61250;SDS011;47126;47.508;8.590;2022-10-15T07:31:13;2.65;;;1.65;;
61250;SDS011;47126;47.508;8.590;2022-10-15T07:33:40;3.63;;;1.85;;
61250;SDS011;47126;47.508;8.590;2022-10-15T07:36:08;5.20;;;1.75;;
61250;SDS011;47126;47.508;8.590;2022-10-15T07:38:35;2.58;;;1.67;;
61250;SDS011;47126;47.508;8.590;2022-10-15T07:41:02;4.55;;;1.50;;
61250;SDS011;47126;47.508;8.590;2022-10-15T07:43:28;5.15;;;1.23;;
61250;SDS011;47126;47.508;8.590;2022-10-15T07:45:54;4.25;;;1.70;;
61250;SDS011;47126;47.508;8.590;2022-10-15T07:48:21;2.35;;;1.40;;
61250;SDS011;47126;47.508;8.590;2022-10-15T07:50:52;2.47;;;1.40;;
61250;SDS011;47126;47.508;8.590;2022-10-15T07:53:18;3.75;;;1.35;;
61250;SDS011;47126;47.508;8.590;2022-10-15T07:55:44;6.28;;;1.38;;
61250;SDS011;47126;47.508;8.590;2022-10-15T07:58:10;2.92;;;1.40;;
61250;SDS011;47126;47.508;8.590;2022-10-15T08:00:36;3.17;;;1.30;;
61250;SDS011;47126;47.508;8.590;2022-10-15T08:03:02;3.88;;;1.50;;
61250;SDS011;47126;47.508;8.590;2022-10-15T08:05:28;3.70;;;1.10;;
61250;SDS011;47126;47.508;8.590;2022-10-15T08:07:54;3.33;;;1.10;;
61250;SDS011;47126;47.508;8.590;2022-10-15T08:10:20;2.80;;;1.30;;
61250;SDS011;47126;47.508;8.590;2022-10-15T08:12:46;3.13;;;1.30;;
61250;SDS011;47126;47.508;8.590;2022-10-15T08:15:12;5.88;;;1.35;;
61250;SDS011;47126;47.508;8.590;2022-10-15T08:17:38;4.90;;;1.27;;
61250;SDS011;47126;47.508;8.590;2022-10-15T08:20:04;2.85;;;1.10;;
61250;SDS011;47126;47.508;8.590;2022-10-15T08:22:30;2.33;;;1.20;;
61250;SDS011;47126;47.508;8.590;2022-10-15T08:24:57;3.08;;;1.20;;
61250;SDS011;47126;47.508;8.590;2022-10-15T08:27:23;1.92;;;1.20;;
61250;SDS011;47126;47.508;8.590;2022-10-15T08:29:49;1.20;;;0.80;;
61250;SDS011;47126;47.508;8.590;2022-10-15T08:32:15;2.28;;;0.90;;
61250;SDS011;47126;47.508;8.590;2022-10-15T08:34:41;8.93;;;1.45;;
61250;SDS011;47126;47.508;8.590;2022-10-15T08:37:07;2.42;;;0.88;;
61250;SDS011;47126;47.508;8.590;2022-10-15T08:39:33;1.70;;;1.13;;
61250;SDS011;47126;47.508;8.590;2022-10-15T08:44:53;2.80;;;1.55;;
61250;SDS011;47126;47.508;8.590;2022-10-15T08:52:40;4.32;;;1.08;;
61250;SDS011;47126;47.508;8.590;2022-10-15T08:55:13;2.35;;;1.10;;
61250;SDS011;47126;47.508;8.590;2022-10-15T08:57:55;2.95;;;1.10;;
61250;SDS011;47126;47.508;8.590;2022-10-15T09:05:32;1.73;;;1.00;;
61250;SDS011;47126;47.508;8.590;2022-10-15T09:10:50;5.35;;;1.00;;
61250;SDS011;47126;47.508;8.590;2022-10-15T09:15:46;2.92;;;0.80;;
61250;SDS011;47126;47.508;8.590;2022-10-15T09:18:16;7.25;;;0.90;;
61250;SDS011;47126;47.508;8.590;2022-10-15T09:20:43;3.88;;;1.05;;
61250;SDS011;47126;47.508;8.590;2022-10-15T09:23:15;3.60;;;1.23;;
61250;SDS011;47126;47.508;8.590;2022-10-15T09:25:42;1.17;;;0.80;;
61250;SDS011;47126;47.508;8.590;2022-10-15T09:28:10;4.82;;;1.00;;
61250;SDS011;47126;47.508;8.590;2022-10-15T09:33:18;3.13;;;1.10;;
61250;SDS011;47126;47.508;8.590;2022-10-15T09:35:54;2.03;;;0.90;;
61250;SDS011;47126;47.508;8.590;2022-10-15T09:38:26;2.67;;;0.90;;
61250;SDS011;47126;47.508;8.590;2022-10-15T09:43:29;3.78;;;0.80;;
61250;SDS011;47126;47.508;8.590;2022-10-15T09:45:59;1.48;;;1.00;;
61250;SDS011;47126;47.508;8.590;2022-10-15T09:48:25;3.38;;;0.90;;
61250;SDS011;47126;47.508;8.590;2022-10-15T09:50:54;8.07;;;0.90;;
61250;SDS011;47126;47.508;8.590;2022-10-15T09:53:29;2.72;;;0.82;;
61250;SDS011;47126;47.508;8.590;2022-10-15T09:58:34;1.85;;;0.80;;
61250;SDS011;47126;47.508;8.590;2022-10-15T10:01:04;4.50;;;0.85;;
61250;SDS011;47126;47.508;8.590;2022-10-15T10:03:31;2.83;;;0.80;;
61250;SDS011;47126;47.508;8.590;2022-10-15T10:05:58;4.72;;;0.80;;
61250;SDS011;47126;47.508;8.590;2022-10-15T10:08:25;3.80;;;1.00;;
61250;SDS011;47126;47.508;8.590;2022-10-15T10:10:57;4.30;;;0.90;;
61250;SDS011;47126;47.508;8.590;2022-10-15T10:13:24;2.17;;;0.75;;
61250;SDS011;47126;47.508;8.590;2022-10-15T10:15:52;3.53;;;1.10;;
61250;SDS011;47126;47.508;8.590;2022-10-15T10:18:19;1.30;;;0.77;;
61250;SDS011;47126;47.508;8.590;2022-10-15T10:20:53;2.33;;;0.98;;
61250;SDS011;47126;47.508;8.590;2022-10-15T10:23:23;3.15;;;1.00;;
61250;SDS011;47126;47.508;8.590;2022-10-15T10:25:49;1.50;;;0.80;;
61250;SDS011;47126;47.508;8.590;2022-10-15T10:28:18;0.82;;;0.70;;
61250;SDS011;47126;47.508;8.590;2022-10-15T10:30:52;4.82;;;0.75;;
61250;SDS011;47126;47.508;8.590;2022-10-15T10:33:29;0.82;;;0.60;;
61250;SDS011;47126;47.508;8.590;2022-10-15T10:35:55;3.13;;;0.80;;
61250;SDS011;47126;47.508;8.590;2022-10-15T10:38:22;2.17;;;1.17;;
61250;SDS011;47126;47.508;8.590;2022-10-15T10:40:49;3.53;;;0.93;;
61250;SDS011;47126;47.508;8.590;2022-10-15T10:48:18;2.45;;;1.00;;
61250;SDS011;47126;47.508;8.590;2022-10-15T10:50:45;2.17;;;0.90;;
61250;SDS011;47126;47.508;8.590;2022-10-15T10:53:21;4.20;;;0.90;;
61250;SDS011;47126;47.508;8.590;2022-10-15T10:55:47;2.05;;;0.98;;
61250;SDS011;47126;47.508;8.590;2022-10-15T10:58:19;3.85;;;0.90;;
61250;SDS011;47126;47.508;8.590;2022-10-15T11:00:46;1.42;;;1.08;;
61250;SDS011;47126;47.508;8.590;2022-10-15T11:06:00;3.35;;;1.17;;
61250;SDS011;47126;47.508;8.590;2022-10-15T11:10:59;4.70;;;1.05;;
61250;SDS011;47126;47.508;8.590;2022-10-15T11:13:41;1.95;;;0.95;;
61250;SDS011;47126;47.508;8.590;2022-10-15T11:16:14;3.85;;;1.17;;
61250;SDS011;47126;47.508;8.590;2022-10-15T11:18:52;1.40;;;0.93;;
61250;SDS011;47126;47.508;8.590;2022-10-15T11:23:59;5.53;;;1.10;;
61250;SDS011;47126;47.508;8.590;2022-10-15T11:29:08;5.07;;;1.00;;
61250;SDS011;47126;47.508;8.590;2022-10-15T11:31:54;5.68;;;2.95;;
61250;SDS011;47126;47.508;8.590;2022-10-15T11:37:07;5.28;;;1.02;;
61250;SDS011;47126;47.508;8.590;2022-10-15T11:39:47;2.72;;;1.00;;
61250;SDS011;47126;47.508;8.590;2022-10-15T11:44:55;2.40;;;1.05;;
61250;SDS011;47126;47.508;8.590;2022-10-15T11:50:01;2.22;;;0.82;;
61250;SDS011;47126;47.508;8.590;2022-10-15T11:55:00;1.20;;;0.70;;
61250;SDS011;47126;47.508;8.590;2022-10-15T11:57:27;2.40;;;0.95;;
61250;SDS011;47126;47.508;8.590;2022-10-15T11:59:57;2.33;;;1.10;;
61250;SDS011;47126;47.508;8.590;2022-10-15T12:04:55;6.32;;;1.10;;
61250;SDS011;47126;47.508;8.590;2022-10-15T12:07:27;8.00;;;1.00;;
61250;SDS011;47126;47.508;8.590;2022-10-15T12:10:08;3.40;;;1.15;;
61250;SDS011;47126;47.508;8.590;2022-10-15T12:12:41;2.78;;;0.82;;
61250;SDS011;47126;47.508;8.590;2022-10-15T12:15:19;3.70;;;0.77;;
61250;SDS011;47126;47.508;8.590;2022-10-15T12:17:50;1.60;;;0.80;;
61250;SDS011;47126;47.508;8.590;2022-10-15T12:20:18;1.35;;;0.95;;
61250;SDS011;47126;47.508;8.590;2022-10-15T12:28:12;5.53;;;1.92;;
61250;SDS011;47126;47.508;8.590;2022-10-15T12:30:39;2.55;;;1.08;;
61250;SDS011;47126;47.508;8.590;2022-10-15T12:33:23;2.53;;;1.05;;
61250;SDS011;47126;47.508;8.590;2022-10-15T12:35:53;2.00;;;0.90;;
61250;SDS011;47126;47.508;8.590;2022-10-15T12:38:22;1.27;;;0.80;;
61250;SDS011;47126;47.508;8.590;2022-10-15T12:40:57;4.97;;;0.97;;
61250;SDS011;47126;47.508;8.590;2022-10-15T12:43:24;2.95;;;1.00;;
61250;SDS011;47126;47.508;8.590;2022-10-15T12:45:54;2.42;;;1.02;;
61250;SDS011;47126;47.508;8.590;2022-10-15T12:48:28;8.82;;;1.13;;
61250;SDS011;47126;47.508;8.590;2022-10-15T12:53:43;2.10;;;0.90;;
61250;SDS011;47126;47.508;8.590;2022-10-15T12:58:36;1.65;;;1.10;;
61250;SDS011;47126;47.508;8.590;2022-10-15T13:01:05;1.58;;;0.80;;
61250;SDS011;47126;47.508;8.590;2022-10-15T13:03:52;2.33;;;0.90;;
61250;SDS011;47126;47.508;8.590;2022-10-15T13:09:02;3.60;;;1.00;;
61250;SDS011;47126;47.508;8.590;2022-10-15T13:11:30;2.95;;;0.80;;
61250;SDS011;47126;47.508;8.590;2022-10-15T13:16:45;1.95;;;0.70;;
61250;SDS011;47126;47.508;8.590;2022-10-15T13:19:16;2.28;;;0.98;;
61250;SDS011;47126;47.508;8.590;2022-10-15T13:24:09;5.28;;;1.08;;
61250;SDS011;47126;47.508;8.590;2022-10-15T13:26:36;2.70;;;0.80;;
61250;SDS011;47126;47.508;8.590;2022-10-15T13:29:02;0.77;;;0.60;;
61250;SDS011;47126;47.508;8.590;2022-10-15T13:31:29;1.92;;;1.00;;
61250;SDS011;47126;47.508;8.590;2022-10-15T13:33:59;1.58;;;0.93;;
61250;SDS011;47126;47.508;8.590;2022-10-15T13:36:31;2.97;;;0.93;;
61250;SDS011;47126;47.508;8.590;2022-10-15T13:38:59;2.25;;;0.73;;
61250;SDS011;47126;47.508;8.590;2022-10-15T13:41:26;5.53;;;0.77;;
61250;SDS011;47126;47.508;8.590;2022-10-15T13:43:52;2.58;;;0.80;;
61250;SDS011;47126;47.508;8.590;2022-10-15T13:46:23;1.77;;;0.80;;
61250;SDS011;47126;47.508;8.590;2022-10-15T13:48:51;3.65;;;0.82;;
61250;SDS011;47126;47.508;8.590;2022-10-15T13:51:21;4.47;;;0.73;;
61250;SDS011;47126;47.508;8.590;2022-10-15T13:53:46;1.40;;;0.70;;
61250;SDS011;47126;47.508;8.590;2022-10-15T13:56:26;1.85;;;0.80;;
61250;SDS011;47126;47.508;8.590;2022-10-15T13:58:54;1.17;;;0.70;;
61250;SDS011;47126;47.508;8.590;2022-10-15T14:01:21;1.00;;;0.73;;
61250;SDS011;47126;47.508;8.590;2022-10-15T14:03:48;4.25;;;0.70;;
61250;SDS011;47126;47.508;8.590;2022-10-15T14:08:48;1.98;;;1.13;;
61250;SDS011;47126;47.508;8.590;2022-10-15T14:11:14;2.38;;;0.90;;
61250;SDS011;47126;47.508;8.590;2022-10-15T14:13:48;2.53;;;0.80;;
61250;SDS011;47126;47.508;8.590;2022-10-15T14:16:26;1.52;;;0.77;;
61250;SDS011;47126;47.508;8.590;2022-10-15T14:19:14;1.17;;;0.90;;
61250;SDS011;47126;47.508;8.590;2022-10-15T14:21:43;2.03;;;1.05;;
61250;SDS011;47126;47.508;8.590;2022-10-15T14:24:15;2.13;;;0.75;;
61250;SDS011;47126;47.508;8.590;2022-10-15T14:26:42;1.67;;;0.80;;
61250;SDS011;47126;47.508;8.590;2022-10-15T14:31:44;6.32;;;0.80;;
61250;SDS011;47126;47.508;8.590;2022-10-15T14:34:26;4.43;;;0.82;;
61250;SDS011;47126;47.508;8.590;2022-10-15T14:36:53;4.57;;;1.08;;
61250;SDS011;47126;47.508;8.590;2022-10-15T14:39:32;7.25;;;0.88;;
61250;SDS011;47126;47.508;8.590;2022-10-15T14:42:02;3.55;;;1.00;;
61250;SDS011;47126;47.508;8.590;2022-10-15T14:44:42;2.70;;;1.38;;
61250;SDS011;47126;47.508;8.590;2022-10-15T14:47:09;6.53;;;1.20;;
61250;SDS011;47126;47.508;8.590;2022-10-15T14:49:39;7.05;;;1.50;;
61250;SDS011;47126;47.508;8.590;2022-10-15T14:52:06;5.35;;;1.63;;
61250;SDS011;47126;47.508;8.590;2022-10-15T14:54:38;10.23;;;1.30;;
61250;SDS011;47126;47.508;8.590;2022-10-15T14:57:16;9.02;;;2.30;;
61250;SDS011;47126;47.508;8.590;2022-10-15T14:59:43;8.27;;;2.25;;
61250;SDS011;47126;47.508;8.590;2022-10-15T15:02:10;5.25;;;2.10;;
61250;SDS011;47126;47.508;8.590;2022-10-15T15:04:40;2.50;;;1.50;;
61250;SDS011;47126;47.508;8.590;2022-10-15T15:07:17;6.45;;;2.38;;
61250;SDS011;47126;47.508;8.590;2022-10-15T15:09:46;11.18;;;2.40;;
61250;SDS011;47126;47.508;8.590;2022-10-15T15:12:22;6.68;;;2.25;;
61250;SDS011;47126;47.508;8.590;2022-10-15T15:14:49;10.00;;;1.90;;
61250;SDS011;47126;47.508;8.590;2022-10-15T15:17:16;6.22;;;1.55;;
61250;SDS011;47126;47.508;8.590;2022-10-15T15:19:42;5.97;;;2.20;;
61250;SDS011;47126;47.508;8.590;2022-10-15T15:22:12;8.23;;;2.22;;
61250;SDS011;47126;47.508;8.590;2022-10-15T15:24:39;6.10;;;3.15;;
61250;SDS011;47126;47.508;8.590;2022-10-15T15:27:05;11.00;;;3.97;;
61250;SDS011;47126;47.508;8.590;2022-10-15T15:29:31;9.02;;;3.58;;
61250;SDS011;47126;47.508;8.590;2022-10-15T15:31:57;3.55;;;1.95;;
61250;SDS011;47126;47.508;8.590;2022-10-15T15:34:23;13.68;;;2.53;;
61250;SDS011;47126;47.508;8.590;2022-10-15T15:36:49;6.45;;;1.55;;
61250;SDS011;47126;47.508;8.590;2022-10-15T15:39:15;10.55;;;2.53;;
61250;SDS011;47126;47.508;8.590;2022-10-15T15:41:41;13.23;;;3.15;;
61250;SDS011;47126;47.508;8.590;2022-10-15T15:44:10;15.75;;;4.25;;
61250;SDS011;47126;47.508;8.590;2022-10-15T15:46:36;32.05;;;5.03;;
61250;SDS011;47126;47.508;8.590;2022-10-15T15:49:02;9.32;;;3.60;;
61250;SDS011;47126;47.508;8.590;2022-10-15T15:51:28;9.48;;;3.53;;
61250;SDS011;47126;47.508;8.590;2022-10-15T15:53:56;10.60;;;2.90;;
61250;SDS011;47126;47.508;8.590;2022-10-15T15:56:22;7.80;;;2.92;;
61250;SDS011;47126;47.508;8.590;2022-10-15T15:58:48;15.20;;;3.42;;
61250;SDS011;47126;47.508;8.590;2022-10-15T16:01:15;6.43;;;2.60;;
61250;SDS011;47126;47.508;8.590;2022-10-15T16:03:41;11.98;;;4.75;;
61250;SDS011;47126;47.508;8.590;2022-10-15T16:06:07;16.58;;;8.82;;
61250;SDS011;47126;47.508;8.590;2022-10-15T16:08:34;15.00;;;7.10;;
61250;SDS011;47126;47.508;8.590;2022-10-15T16:11:00;13.30;;;4.28;;
61250;SDS011;47126;47.508;8.590;2022-10-15T16:13:26;9.18;;;2.55;;
61250;SDS011;47126;47.508;8.590;2022-10-15T16:15:52;12.18;;;2.47;;
61250;SDS011;47126;47.508;8.590;2022-10-15T16:18:18;10.38;;;1.63;;
61250;SDS011;47126;47.508;8.590;2022-10-15T16:20:44;10.30;;;1.65;;
61250;SDS011;47126;47.508;8.590;2022-10-15T16:23:10;7.95;;;2.33;;
61250;SDS011;47126;47.508;8.590;2022-10-15T16:25:36;11.85;;;3.08;;
61250;SDS011;47126;47.508;8.590;2022-10-15T16:28:02;11.32;;;4.80;;
61250;SDS011;47126;47.508;8.590;2022-10-15T16:30:28;11.68;;;3.83;;
61250;SDS011;47126;47.508;8.590;2022-10-15T16:32:54;12.25;;;3.08;;